sensor_id;sensor_type;location;lat;lon;timestamp;temperature;humidity
22813;DHT22;11573;51.334;3.244;2023-02-11T00:01:13;6.20;99.90
22813;DHT22;11573;51.334;3.244;2023-02-11T00:03:42;6.20;99.90
22813;DHT22;11573;51.334;3.244;2023-02-11T00:06:10;6.20;99.90
22813;DHT22;11573;51.334;3.244;2023-02-11T00:08:38;6.20;99.90
22813;DHT22;11573;51.334;3.244;2023-02-11T00:11:05;6.10;99.90
22813;DHT22;11573;51.334;3.244;2023-02-11T00:13:33;6.10;99.90
22813;DHT22;11573;51.334;3.244;2023-02-11T00:16:08;6.10;99.90
22813;DHT22;11573;51.334;3.244;2023-02-11T00:18:37;6.00;99.90
22813;DHT22;11573;51.334;3.244;2023-02-11T00:21:08;6.00;99.90
22813;DHT22;11573;51.334;3.244;2023-02-11T00:23:36;6.00;99.90
22813;DHT22;11573;51.334;3.244;2023-02-11T00:26:10;6.00;99.90
22813;DHT22;11573;51.334;3.244;2023-02-11T00:28:39;6.00;99.90
22813;DHT22;11573;51.334;3.244;2023-02-11T00:31:09;6.00;99.90
22813;DHT22;11573;51.334;3.244;2023-02-11T00:33:37;6.00;99.90
22813;DHT22;11573;51.334;3.244;2023-02-11T00:36:07;6.00;99.90
22813;DHT22;11573;51.334;3.244;2023-02-11T00:38:35;6.10;99.90
22813;DHT22;11573;51.334;3.244;2023-02-11T00:41:02;6.10;99.90
22813;DHT22;11573;51.334;3.244;2023-02-11T00:43:30;6.10;99.90
22813;DHT22;11573;51.334;3.244;2023-02-11T00:45:57;6.10;99.90
22813;DHT22;11573;51.334;3.244;2023-02-11T00:48:24;6.20;99.90
22813;DHT22;11573;51.334;3.244;2023-02-11T00:50:51;6.10;99.90
22813;DHT22;11573;51.334;3.244;2023-02-11T00:53:18;6.10;99.90
22813;DHT22;11573;51.334;3.244;2023-02-11T00:55:45;6.10;99.90
22813;DHT22;11573;51.334;3.244;2023-02-11T00:58:13;6.10;99.90
22813;DHT22;11573;51.334;3.244;2023-02-11T01:00:41;6.10;99.90
22813;DHT22;11573;51.334;3.244;2023-02-11T01:03:08;6.10;99.90
22813;DHT22;11573;51.334;3.244;2023-02-11T01:05:36;6.10;99.90
22813;DHT22;11573;51.334;3.244;2023-02-11T01:08:03;6.10;99.90
22813;DHT22;11573;51.334;3.244;2023-02-11T01:10:30;6.00;99.90
22813;DHT22;11573;51.334;3.244;2023-02-11T01:12:57;6.10;99.90
22813;DHT22;11573;51.334;3.244;2023-02-11T01:15:25;6.10;99.90
22813;DHT22;11573;51.334;3.244;2023-02-11T01:17:52;6.10;99.90
22813;DHT22;11573;51.334;3.244;2023-02-11T01:20:23;6.20;99.90
22813;DHT22;11573;51.334;3.244;2023-02-11T01:22:50;6.20;99.90
22813;DHT22;11573;51.334;3.244;2023-02-11T01:25:17;6.20;99.90
22813;DHT22;11573;51.334;3.244;2023-02-11T01:27:44;6.30;99.90
22813;DHT22;11573;51.334;3.244;2023-02-11T01:30:12;6.30;99.90
22813;DHT22;11573;51.334;3.244;2023-02-11T01:32:40;6.30;99.90
22813;DHT22;11573;51.334;3.244;2023-02-11T01:35:07;6.30;99.90
22813;DHT22;11573;51.334;3.244;2023-02-11T01:37:34;6.20;99.90
22813;DHT22;11573;51.334;3.244;2023-02-11T01:40:06;6.20;99.90
22813;DHT22;11573;51.334;3.244;2023-02-11T01:42:33;6.20;99.90
22813;DHT22;11573;51.334;3.244;2023-02-11T01:45:03;6.20;99.90
22813;DHT22;11573;51.334;3.244;2023-02-11T01:47:48;6.20;99.90
22813;DHT22;11573;51.334;3.244;2023-02-11T01:50:17;6.20;99.90
22813;DHT22;11573;51.334;3.244;2023-02-11T01:52:45;6.20;99.90
22813;DHT22;11573;51.334;3.244;2023-02-11T01:55:14;6.30;99.90
22813;DHT22;11573;51.334;3.244;2023-02-11T01:58:04;6.30;99.90
22813;DHT22;11573;51.334;3.244;2023-02-11T02:00:34;6.40;99.90
22813;DHT22;11573;51.334;3.244;2023-02-11T02:03:13;6.30;99.90
22813;DHT22;11573;51.334;3.244;2023-02-11T02:06:09;6.30;99.90
22813;DHT22;11573;51.334;3.244;2023-02-11T02:09:05;6.40;99.90
22813;DHT22;11573;51.334;3.244;2023-02-11T02:11:35;6.40;99.90
22813;DHT22;11573;51.334;3.244;2023-02-11T02:14:03;6.40;99.90
22813;DHT22;11573;51.334;3.244;2023-02-11T02:16:33;6.40;99.90
22813;DHT22;11573;51.334;3.244;2023-02-11T02:24:52;6.40;99.90
22813;DHT22;11573;51.334;3.244;2023-02-11T02:27:32;6.40;99.90
22813;DHT22;11573;51.334;3.244;2023-02-11T02:30:34;6.50;99.90
22813;DHT22;11573;51.334;3.244;2023-02-11T02:33:16;6.50;99.90
22813;DHT22;11573;51.334;3.244;2023-02-11T02:38:56;6.50;99.90
22813;DHT22;11573;51.334;3.244;2023-02-11T02:41:30;6.50;99.90
22813;DHT22;11573;51.334;3.244;2023-02-11T02:43:58;6.70;99.90
22813;DHT22;11573;51.334;3.244;2023-02-11T02:46:28;6.70;99.90
22813;DHT22;11573;51.334;3.244;2023-02-11T02:48:57;6.70;99.90
22813;DHT22;11573;51.334;3.244;2023-02-11T03:08:17;6.80;99.90
22813;DHT22;11573;51.334;3.244;2023-02-11T03:10:50;6.80;99.90
22813;DHT22;11573;51.334;3.244;2023-02-11T03:13:23;6.80;99.90
22813;DHT22;11573;51.334;3.244;2023-02-11T03:15:54;6.80;99.90
22813;DHT22;11573;51.334;3.244;2023-02-11T03:18:26;6.80;99.90
22813;DHT22;11573;51.334;3.244;2023-02-11T03:20:55;6.80;99.90
22813;DHT22;11573;51.334;3.244;2023-02-11T03:23:28;6.90;99.90
22813;DHT22;11573;51.334;3.244;2023-02-11T03:31:46;7.00;99.90
22813;DHT22;11573;51.334;3.244;2023-02-11T03:34:31;7.00;99.90
22813;DHT22;11573;51.334;3.244;2023-02-11T03:39:59;7.00;99.90
22813;DHT22;11573;51.334;3.244;2023-02-11T03:42:29;7.00;99.90
22813;DHT22;11573;51.334;3.244;2023-02-11T03:45:08;7.00;99.90
22813;DHT22;11573;51.334;3.244;2023-02-11T03:47:40;7.00;99.90
22813;DHT22;11573;51.334;3.244;2023-02-11T03:50:14;6.90;99.90
22813;DHT22;11573;51.334;3.244;2023-02-11T03:52:43;6.90;99.90
22813;DHT22;11573;51.334;3.244;2023-02-11T03:55:18;7.00;99.90
22813;DHT22;11573;51.334;3.244;2023-02-11T03:57:46;7.00;99.90
22813;DHT22;11573;51.334;3.244;2023-02-11T04:00:14;7.00;99.90
22813;DHT22;11573;51.334;3.244;2023-02-11T04:02:42;7.00;99.90
22813;DHT22;11573;51.334;3.244;2023-02-11T04:05:13;7.00;99.90
22813;DHT22;11573;51.334;3.244;2023-02-11T04:07:40;7.00;99.90
22813;DHT22;11573;51.334;3.244;2023-02-11T04:10:08;7.00;99.90
22813;DHT22;11573;51.334;3.244;2023-02-11T04:12:35;7.00;99.90
22813;DHT22;11573;51.334;3.244;2023-02-11T04:15:02;7.00;99.90
22813;DHT22;11573;51.334;3.244;2023-02-11T04:17:29;6.90;99.90
22813;DHT22;11573;51.334;3.244;2023-02-11T04:19:57;6.90;99.90
22813;DHT22;11573;51.334;3.244;2023-02-11T04:22:24;7.00;99.90
22813;DHT22;11573;51.334;3.244;2023-02-11T04:24:51;7.00;99.90
22813;DHT22;11573;51.334;3.244;2023-02-11T04:27:18;6.90;99.90
22813;DHT22;11573;51.334;3.244;2023-02-11T04:29:45;7.00;99.90
22813;DHT22;11573;51.334;3.244;2023-02-11T04:32:12;6.90;99.90
22813;DHT22;11573;51.334;3.244;2023-02-11T04:34:39;6.90;99.90
22813;DHT22;11573;51.334;3.244;2023-02-11T04:37:06;6.90;99.90
22813;DHT22;11573;51.334;3.244;2023-02-11T04:39:34;7.00;99.90
22813;DHT22;11573;51.334;3.244;2023-02-11T04:42:01;7.00;99.90
22813;DHT22;11573;51.334;3.244;2023-02-11T04:44:28;6.90;99.90
22813;DHT22;11573;51.334;3.244;2023-02-11T04:46:56;7.00;99.90
22813;DHT22;11573;51.334;3.244;2023-02-11T04:49:23;7.00;99.90
22813;DHT22;11573;51.334;3.244;2023-02-11T04:51:50;6.90;99.90
22813;DHT22;11573;51.334;3.244;2023-02-11T04:54:17;6.90;99.90
22813;DHT22;11573;51.334;3.244;2023-02-11T04:56:44;6.90;99.90
22813;DHT22;11573;51.334;3.244;2023-02-11T04:59:12;6.90;99.90
22813;DHT22;11573;51.334;3.244;2023-02-11T05:01:39;6.90;99.90
22813;DHT22;11573;51.334;3.244;2023-02-11T05:04:07;6.90;99.90
22813;DHT22;11573;51.334;3.244;2023-02-11T05:06:34;7.00;99.90
22813;DHT22;11573;51.334;3.244;2023-02-11T05:09:01;7.00;99.90
22813;DHT22;11573;51.334;3.244;2023-02-11T05:11:28;7.00;99.90
22813;DHT22;11573;51.334;3.244;2023-02-11T05:13:55;7.00;99.90
22813;DHT22;11573;51.334;3.244;2023-02-11T05:16:22;6.90;99.90
22813;DHT22;11573;51.334;3.244;2023-02-11T05:18:49;6.90;99.90
22813;DHT22;11573;51.334;3.244;2023-02-11T05:21:18;6.90;99.90
22813;DHT22;11573;51.334;3.244;2023-02-11T05:23:45;6.90;99.90
22813;DHT22;11573;51.334;3.244;2023-02-11T05:26:14;6.90;99.90
22813;DHT22;11573;51.334;3.244;2023-02-11T05:28:43;6.90;99.90
22813;DHT22;11573;51.334;3.244;2023-02-11T05:31:11;6.80;99.90
22813;DHT22;11573;51.334;3.244;2023-02-11T05:33:41;6.90;99.90
22813;DHT22;11573;51.334;3.244;2023-02-11T05:36:10;6.80;99.90
22813;DHT22;11573;51.334;3.244;2023-02-11T05:38:38;6.70;99.90
22813;DHT22;11573;51.334;3.244;2023-02-11T05:41:05;6.60;99.90
22813;DHT22;11573;51.334;3.244;2023-02-11T05:43:33;6.60;99.90
22813;DHT22;11573;51.334;3.244;2023-02-11T05:46:03;6.60;99.90
22813;DHT22;11573;51.334;3.244;2023-02-11T05:48:31;6.60;99.90
22813;DHT22;11573;51.334;3.244;2023-02-11T05:50:58;6.60;99.90
22813;DHT22;11573;51.334;3.244;2023-02-11T05:53:25;6.60;99.90
22813;DHT22;11573;51.334;3.244;2023-02-11T05:55:52;6.50;99.90
22813;DHT22;11573;51.334;3.244;2023-02-11T05:58:19;6.60;99.90
22813;DHT22;11573;51.334;3.244;2023-02-11T06:00:46;6.50;99.90
22813;DHT22;11573;51.334;3.244;2023-02-11T06:03:13;6.50;99.90
22813;DHT22;11573;51.334;3.244;2023-02-11T06:05:42;6.50;99.90
22813;DHT22;11573;51.334;3.244;2023-02-11T06:08:10;6.50;99.90
22813;DHT22;11573;51.334;3.244;2023-02-11T06:10:37;6.50;99.90
22813;DHT22;11573;51.334;3.244;2023-02-11T06:13:04;6.50;99.90
22813;DHT22;11573;51.334;3.244;2023-02-11T06:15:32;6.40;99.90
22813;DHT22;11573;51.334;3.244;2023-02-11T06:17:59;6.30;99.90
22813;DHT22;11573;51.334;3.244;2023-02-11T06:20:26;6.30;99.90
22813;DHT22;11573;51.334;3.244;2023-02-11T06:22:53;6.20;99.90
22813;DHT22;11573;51.334;3.244;2023-02-11T06:25:20;6.20;99.90
22813;DHT22;11573;51.334;3.244;2023-02-11T06:27:47;6.20;99.90
22813;DHT22;11573;51.334;3.244;2023-02-11T06:30:14;6.30;99.90
22813;DHT22;11573;51.334;3.244;2023-02-11T06:32:41;6.30;99.90
22813;DHT22;11573;51.334;3.244;2023-02-11T06:35:12;6.40;99.90
22813;DHT22;11573;51.334;3.244;2023-02-11T06:37:40;6.30;99.90
22813;DHT22;11573;51.334;3.244;2023-02-11T06:40:08;6.40;99.90
22813;DHT22;11573;51.334;3.244;2023-02-11T06:42:35;6.20;99.90
22813;DHT22;11573;51.334;3.244;2023-02-11T06:45:04;6.20;99.90
22813;DHT22;11573;51.334;3.244;2023-02-11T06:47:32;6.20;99.90
22813;DHT22;11573;51.334;3.244;2023-02-11T06:49:59;6.30;99.90
22813;DHT22;11573;51.334;3.244;2023-02-11T06:52:26;6.30;99.90
22813;DHT22;11573;51.334;3.244;2023-02-11T06:54:53;6.30;99.90
22813;DHT22;11573;51.334;3.244;2023-02-11T06:57:20;6.40;99.90
22813;DHT22;11573;51.334;3.244;2023-02-11T06:59:47;6.40;99.90
22813;DHT22;11573;51.334;3.244;2023-02-11T07:02:14;6.60;99.90
22813;DHT22;11573;51.334;3.244;2023-02-11T07:04:42;6.60;99.90
22813;DHT22;11573;51.334;3.244;2023-02-11T07:07:10;6.70;99.90
22813;DHT22;11573;51.334;3.244;2023-02-11T07:09:37;6.80;99.90
22813;DHT22;11573;51.334;3.244;2023-02-11T07:12:05;6.70;99.90
22813;DHT22;11573;51.334;3.244;2023-02-11T07:14:32;6.70;99.90
22813;DHT22;11573;51.334;3.244;2023-02-11T07:16:59;6.80;99.90
22813;DHT22;11573;51.334;3.244;2023-02-11T07:19:26;6.80;99.90
22813;DHT22;11573;51.334;3.244;2023-02-11T07:21:53;6.70;99.90
22813;DHT22;11573;51.334;3.244;2023-02-11T07:24:21;6.80;99.90
22813;DHT22;11573;51.334;3.244;2023-02-11T07:26:49;6.80;99.90
22813;DHT22;11573;51.334;3.244;2023-02-11T07:29:16;6.80;99.90
22813;DHT22;11573;51.334;3.244;2023-02-11T07:31:43;6.90;99.90
22813;DHT22;11573;51.334;3.244;2023-02-11T07:34:10;7.00;99.90
22813;DHT22;11573;51.334;3.244;2023-02-11T07:36:38;7.00;99.90
22813;DHT22;11573;51.334;3.244;2023-02-11T07:39:05;7.10;99.90
22813;DHT22;11573;51.334;3.244;2023-02-11T07:41:32;7.10;99.90
22813;DHT22;11573;51.334;3.244;2023-02-11T07:44:04;7.10;99.90
22813;DHT22;11573;51.334;3.244;2023-02-11T07:46:31;7.20;99.90
22813;DHT22;11573;51.334;3.244;2023-02-11T07:49:00;7.20;99.90
22813;DHT22;11573;51.334;3.244;2023-02-11T07:51:28;7.30;99.90
22813;DHT22;11573;51.334;3.244;2023-02-11T07:53:57;7.30;99.90
22813;DHT22;11573;51.334;3.244;2023-02-11T07:56:25;7.40;99.90
22813;DHT22;11573;51.334;3.244;2023-02-11T07:58:53;7.40;99.90
22813;DHT22;11573;51.334;3.244;2023-02-11T08:01:22;7.50;99.90
22813;DHT22;11573;51.334;3.244;2023-02-11T08:03:52;7.40;99.90
22813;DHT22;11573;51.334;3.244;2023-02-11T08:06:21;7.60;99.90
22813;DHT22;11573;51.334;3.244;2023-02-11T08:08:48;7.70;99.90
22813;DHT22;11573;51.334;3.244;2023-02-11T08:11:22;7.70;99.90
22813;DHT22;11573;51.334;3.244;2023-02-11T08:13:50;7.80;99.90
22813;DHT22;11573;51.334;3.244;2023-02-11T08:16:23;7.80;99.90
22813;DHT22;11573;51.334;3.244;2023-02-11T08:18:51;8.00;99.90
22813;DHT22;11573;51.334;3.244;2023-02-11T08:21:20;8.00;99.90
22813;DHT22;11573;51.334;3.244;2023-02-11T08:23:47;7.90;99.90
22813;DHT22;11573;51.334;3.244;2023-02-11T08:26:21;8.00;99.90
22813;DHT22;11573;51.334;3.244;2023-02-11T08:28:51;8.00;99.90
22813;DHT22;11573;51.334;3.244;2023-02-11T08:31:21;8.00;99.90
22813;DHT22;11573;51.334;3.244;2023-02-11T08:33:49;8.00;99.90
22813;DHT22;11573;51.334;3.244;2023-02-11T08:36:19;8.00;99.90
22813;DHT22;11573;51.334;3.244;2023-02-11T08:38:47;8.10;99.90
22813;DHT22;11573;51.334;3.244;2023-02-11T08:41:15;8.10;99.90
22813;DHT22;11573;51.334;3.244;2023-02-11T08:43:45;8.20;99.90
22813;DHT22;11573;51.334;3.244;2023-02-11T08:46:14;8.10;99.90
22813;DHT22;11573;51.334;3.244;2023-02-11T08:48:43;8.20;99.90
22813;DHT22;11573;51.334;3.244;2023-02-11T08:51:15;8.20;99.90
22813;DHT22;11573;51.334;3.244;2023-02-11T08:53:43;8.20;99.90
22813;DHT22;11573;51.334;3.244;2023-02-11T08:56:12;8.30;99.90
22813;DHT22;11573;51.334;3.244;2023-02-11T08:58:40;8.40;99.90
22813;DHT22;11573;51.334;3.244;2023-02-11T09:01:17;8.30;99.90
22813;DHT22;11573;51.334;3.244;2023-02-11T09:03:48;8.50;99.90
22813;DHT22;11573;51.334;3.244;2023-02-11T09:06:16;8.50;99.90
22813;DHT22;11573;51.334;3.244;2023-02-11T09:08:46;8.50;99.90
22813;DHT22;11573;51.334;3.244;2023-02-11T09:11:24;8.50;99.90
22813;DHT22;11573;51.334;3.244;2023-02-11T09:13:52;8.60;99.90
22813;DHT22;11573;51.334;3.244;2023-02-11T09:16:28;8.50;99.90
22813;DHT22;11573;51.334;3.244;2023-02-11T09:18:58;8.60;99.90
22813;DHT22;11573;51.334;3.244;2023-02-11T09:21:26;8.60;99.90
22813;DHT22;11573;51.334;3.244;2023-02-11T09:23:54;8.70;99.90
22813;DHT22;11573;51.334;3.244;2023-02-11T09:26:26;8.70;99.90
22813;DHT22;11573;51.334;3.244;2023-02-11T09:28:55;8.70;99.90
22813;DHT22;11573;51.334;3.244;2023-02-11T09:31:25;8.60;99.90
22813;DHT22;11573;51.334;3.244;2023-02-11T09:33:56;8.50;99.90
22813;DHT22;11573;51.334;3.244;2023-02-11T09:36:29;8.50;99.90
22813;DHT22;11573;51.334;3.244;2023-02-11T09:38:58;8.50;99.90
22813;DHT22;11573;51.334;3.244;2023-02-11T09:41:47;8.60;99.90
22813;DHT22;11573;51.334;3.244;2023-02-11T09:44:26;8.60;99.90
22813;DHT22;11573;51.334;3.244;2023-02-11T09:47:06;8.60;99.90
22813;DHT22;11573;51.334;3.244;2023-02-11T09:49:55;8.50;99.90
22813;DHT22;11573;51.334;3.244;2023-02-11T09:52:41;8.50;99.90
22813;DHT22;11573;51.334;3.244;2023-02-11T09:57:56;8.70;99.90
22813;DHT22;11573;51.334;3.244;2023-02-11T10:03:50;8.70;99.90
22813;DHT22;11573;51.334;3.244;2023-02-11T10:15:32;8.80;99.90
22813;DHT22;11573;51.334;3.244;2023-02-11T10:21:01;8.80;99.90
22813;DHT22;11573;51.334;3.244;2023-02-11T10:23:41;8.80;99.90
22813;DHT22;11573;51.334;3.244;2023-02-11T10:26:15;8.80;99.90
22813;DHT22;11573;51.334;3.244;2023-02-11T10:28:48;9.00;99.90
22813;DHT22;11573;51.334;3.244;2023-02-11T10:31:23;9.00;99.90
22813;DHT22;11573;51.334;3.244;2023-02-11T10:34:13;9.10;99.90
22813;DHT22;11573;51.334;3.244;2023-02-11T10:36:42;9.10;99.90
22813;DHT22;11573;51.334;3.244;2023-02-11T10:42:01;9.10;99.90
22813;DHT22;11573;51.334;3.244;2023-02-11T10:44:33;9.00;99.90
22813;DHT22;11573;51.334;3.244;2023-02-11T10:47:13;8.90;99.90
22813;DHT22;11573;51.334;3.244;2023-02-11T10:49:44;9.00;99.90
22813;DHT22;11573;51.334;3.244;2023-02-11T10:52:26;9.10;99.90
22813;DHT22;11573;51.334;3.244;2023-02-11T10:57:29;9.20;99.90
22813;DHT22;11573;51.334;3.244;2023-02-11T10:59:59;9.20;99.90
22813;DHT22;11573;51.334;3.244;2023-02-11T11:02:32;9.30;99.90
22813;DHT22;11573;51.334;3.244;2023-02-11T11:05:22;9.30;99.90
22813;DHT22;11573;51.334;3.244;2023-02-11T11:08:06;9.40;99.90
22813;DHT22;11573;51.334;3.244;2023-02-11T11:10:42;9.60;99.90
22813;DHT22;11573;51.334;3.244;2023-02-11T11:13:27;9.50;99.90
22813;DHT22;11573;51.334;3.244;2023-02-11T11:18:34;9.50;99.90
22813;DHT22;11573;51.334;3.244;2023-02-11T11:23:39;9.30;99.90
22813;DHT22;11573;51.334;3.244;2023-02-11T11:26:12;9.20;99.90
22813;DHT22;11573;51.334;3.244;2023-02-11T11:29:17;9.20;99.90
22813;DHT22;11573;51.334;3.244;2023-02-11T11:31:50;9.10;99.90
22813;DHT22;11573;51.334;3.244;2023-02-11T11:34:22;9.00;99.90
22813;DHT22;11573;51.334;3.244;2023-02-11T11:36:54;9.00;99.90
22813;DHT22;11573;51.334;3.244;2023-02-11T11:39:31;9.10;99.90
22813;DHT22;11573;51.334;3.244;2023-02-11T11:42:24;9.00;99.90
22813;DHT22;11573;51.334;3.244;2023-02-11T11:55:36;9.30;99.90
22813;DHT22;11573;51.334;3.244;2023-02-11T11:58:05;9.40;99.90
22813;DHT22;11573;51.334;3.244;2023-02-11T12:12:39;9.60;99.90
22813;DHT22;11573;51.334;3.244;2023-02-11T12:27:07;9.50;99.90
22813;DHT22;11573;51.334;3.244;2023-02-11T12:38:48;9.50;99.90
22813;DHT22;11573;51.334;3.244;2023-02-11T12:50:12;9.70;99.90
22813;DHT22;11573;51.334;3.244;2023-02-11T12:53:24;9.60;99.90
22813;DHT22;11573;51.334;3.244;2023-02-11T12:56:07;9.70;99.90
22813;DHT22;11573;51.334;3.244;2023-02-11T12:58:37;9.50;99.90
22813;DHT22;11573;51.334;3.244;2023-02-11T13:01:22;9.50;99.90
22813;DHT22;11573;51.334;3.244;2023-02-11T13:04:15;9.50;99.90
22813;DHT22;11573;51.334;3.244;2023-02-11T13:06:48;9.50;99.90
22813;DHT22;11573;51.334;3.244;2023-02-11T13:09:21;9.70;99.90
22813;DHT22;11573;51.334;3.244;2023-02-11T13:11:54;9.60;99.90
22813;DHT22;11573;51.334;3.244;2023-02-11T13:14:31;9.60;99.90
22813;DHT22;11573;51.334;3.244;2023-02-11T13:17:04;9.60;99.90
22813;DHT22;11573;51.334;3.244;2023-02-11T13:19:49;9.60;99.90
22813;DHT22;11573;51.334;3.244;2023-02-11T13:22:25;9.70;99.90
22813;DHT22;11573;51.334;3.244;2023-02-11T13:30:28;10.00;99.90
22813;DHT22;11573;51.334;3.244;2023-02-11T13:37:58;10.00;99.90
22813;DHT22;11573;51.334;3.244;2023-02-11T13:40:38;9.90;99.90
22813;DHT22;11573;51.334;3.244;2023-02-11T13:43:21;10.00;99.90
22813;DHT22;11573;51.334;3.244;2023-02-11T13:45:50;10.10;99.90
22813;DHT22;11573;51.334;3.244;2023-02-11T13:48:24;10.00;99.90
22813;DHT22;11573;51.334;3.244;2023-02-11T13:50:55;10.00;99.90
22813;DHT22;11573;51.334;3.244;2023-02-11T13:53:22;10.00;99.90
22813;DHT22;11573;51.334;3.244;2023-02-11T13:55:51;10.10;99.90
22813;DHT22;11573;51.334;3.244;2023-02-11T14:00:53;10.00;99.90
22813;DHT22;11573;51.334;3.244;2023-02-11T14:03:27;10.10;99.90
22813;DHT22;11573;51.334;3.244;2023-02-11T14:06:19;10.10;99.90
22813;DHT22;11573;51.334;3.244;2023-02-11T14:09:31;10.10;99.90
22813;DHT22;11573;51.334;3.244;2023-02-11T14:12:24;10.10;99.90
22813;DHT22;11573;51.334;3.244;2023-02-11T14:14:59;10.10;99.90
22813;DHT22;11573;51.334;3.244;2023-02-11T14:17:32;10.00;99.90
22813;DHT22;11573;51.334;3.244;2023-02-11T14:20:02;10.10;99.90
22813;DHT22;11573;51.334;3.244;2023-02-11T14:22:44;10.10;99.90
22813;DHT22;11573;51.334;3.244;2023-02-11T14:25:19;10.10;99.90
22813;DHT22;11573;51.334;3.244;2023-02-11T14:28:06;10.10;99.90
22813;DHT22;11573;51.334;3.244;2023-02-11T14:31:02;10.00;99.90
22813;DHT22;11573;51.334;3.244;2023-02-11T14:36:45;10.00;99.90
22813;DHT22;11573;51.334;3.244;2023-02-11T14:39:36;9.80;99.90
22813;DHT22;11573;51.334;3.244;2023-02-11T14:42:16;9.80;99.90
22813;DHT22;11573;51.334;3.244;2023-02-11T14:44:47;9.70;99.90
22813;DHT22;11573;51.334;3.244;2023-02-11T14:47:18;9.80;99.90
22813;DHT22;11573;51.334;3.244;2023-02-11T14:49:47;9.70;99.90
22813;DHT22;11573;51.334;3.244;2023-02-11T14:52:22;9.70;99.90
22813;DHT22;11573;51.334;3.244;2023-02-11T14:55:01;9.80;99.90
22813;DHT22;11573;51.334;3.244;2023-02-11T14:57:30;9.70;99.90
22813;DHT22;11573;51.334;3.244;2023-02-11T15:00:02;9.50;99.90
22813;DHT22;11573;51.334;3.244;2023-02-11T15:02:35;9.40;99.90
22813;DHT22;11573;51.334;3.244;2023-02-11T15:05:19;9.40;99.90
22813;DHT22;11573;51.334;3.244;2023-02-11T15:07:52;9.50;99.90
22813;DHT22;11573;51.334;3.244;2023-02-11T15:10:42;9.40;99.90
22813;DHT22;11573;51.334;3.244;2023-02-11T15:13:18;9.30;99.90
22813;DHT22;11573;51.334;3.244;2023-02-11T15:15:47;9.30;99.90
22813;DHT22;11573;51.334;3.244;2023-02-11T15:18:20;9.30;99.90
22813;DHT22;11573;51.334;3.244;2023-02-11T15:20:49;9.30;99.90
22813;DHT22;11573;51.334;3.244;2023-02-11T15:23:22;9.20;99.90
22813;DHT22;11573;51.334;3.244;2023-02-11T15:25:50;9.20;99.90
22813;DHT22;11573;51.334;3.244;2023-02-11T15:28:28;9.30;99.90
22813;DHT22;11573;51.334;3.244;2023-02-11T15:31:18;9.20;99.90
22813;DHT22;11573;51.334;3.244;2023-02-11T15:33:46;9.20;99.90
22813;DHT22;11573;51.334;3.244;2023-02-11T15:36:14;9.20;99.90
22813;DHT22;11573;51.334;3.244;2023-02-11T15:38:42;9.10;99.90
22813;DHT22;11573;51.334;3.244;2023-02-11T15:41:35;9.10;99.90
22813;DHT22;11573;51.334;3.244;2023-02-11T15:44:03;9.10;99.90
22813;DHT22;11573;51.334;3.244;2023-02-11T15:46:40;9.10;99.90
22813;DHT22;11573;51.334;3.244;2023-02-11T15:49:14;9.10;99.90
22813;DHT22;11573;51.334;3.244;2023-02-11T15:51:45;9.10;99.90
22813;DHT22;11573;51.334;3.244;2023-02-11T15:54:21;9.10;99.90
22813;DHT22;11573;51.334;3.244;2023-02-11T15:56:58;9.00;99.90
22813;DHT22;11573;51.334;3.244;2023-02-11T15:59:28;9.00;99.90
22813;DHT22;11573;51.334;3.244;2023-02-11T16:02:03;9.10;99.90
22813;DHT22;11573;51.334;3.244;2023-02-11T16:04:31;9.00;99.90
22813;DHT22;11573;51.334;3.244;2023-02-11T16:06:58;9.00;99.90
22813;DHT22;11573;51.334;3.244;2023-02-11T16:09:32;9.00;99.90
22813;DHT22;11573;51.334;3.244;2023-02-11T16:12:04;9.00;99.90
22813;DHT22;11573;51.334;3.244;2023-02-11T16:14:45;8.90;99.90
22813;DHT22;11573;51.334;3.244;2023-02-11T16:17:23;8.90;99.90
22813;DHT22;11573;51.334;3.244;2023-02-11T16:19:52;8.90;99.90
22813;DHT22;11573;51.334;3.244;2023-02-11T16:22:26;8.80;99.90
22813;DHT22;11573;51.334;3.244;2023-02-11T16:24:57;8.80;99.90
22813;DHT22;11573;51.334;3.244;2023-02-11T16:27:38;8.80;99.90
22813;DHT22;11573;51.334;3.244;2023-02-11T16:30:21;8.80;99.90
22813;DHT22;11573;51.334;3.244;2023-02-11T16:32:51;8.80;99.90
22813;DHT22;11573;51.334;3.244;2023-02-11T16:35:19;8.80;99.90
22813;DHT22;11573;51.334;3.244;2023-02-11T16:37:46;8.70;99.90
22813;DHT22;11573;51.334;3.244;2023-02-11T16:40:15;8.70;99.90
22813;DHT22;11573;51.334;3.244;2023-02-11T16:42:43;8.60;99.90
22813;DHT22;11573;51.334;3.244;2023-02-11T16:45:10;8.60;99.90
22813;DHT22;11573;51.334;3.244;2023-02-11T16:47:40;8.60;99.90
22813;DHT22;11573;51.334;3.244;2023-02-11T16:50:10;8.60;99.90
22813;DHT22;11573;51.334;3.244;2023-02-11T16:52:44;8.50;99.90
22813;DHT22;11573;51.334;3.244;2023-02-11T16:55:13;8.60;99.90
22813;DHT22;11573;51.334;3.244;2023-02-11T16:57:41;8.50;99.90
22813;DHT22;11573;51.334;3.244;2023-02-11T17:00:09;8.50;99.90
22813;DHT22;11573;51.334;3.244;2023-02-11T17:02:37;8.40;99.90
22813;DHT22;11573;51.334;3.244;2023-02-11T17:05:06;8.40;99.90
22813;DHT22;11573;51.334;3.244;2023-02-11T17:07:34;8.50;99.90
22813;DHT22;11573;51.334;3.244;2023-02-11T17:10:01;8.40;99.90
22813;DHT22;11573;51.334;3.244;2023-02-11T17:12:28;8.40;99.90
22813;DHT22;11573;51.334;3.244;2023-02-11T17:14:55;8.40;99.90
22813;DHT22;11573;51.334;3.244;2023-02-11T17:17:23;8.30;99.90
22813;DHT22;11573;51.334;3.244;2023-02-11T17:19:50;8.30;99.90
22813;DHT22;11573;51.334;3.244;2023-02-11T17:22:18;8.30;99.90
22813;DHT22;11573;51.334;3.244;2023-02-11T17:24:45;8.30;99.90
22813;DHT22;11573;51.334;3.244;2023-02-11T17:27:13;8.30;99.90
22813;DHT22;11573;51.334;3.244;2023-02-11T17:29:41;8.30;99.90
22813;DHT22;11573;51.334;3.244;2023-02-11T17:32:08;8.20;99.90
22813;DHT22;11573;51.334;3.244;2023-02-11T17:34:35;8.20;99.90
22813;DHT22;11573;51.334;3.244;2023-02-11T17:37:02;8.30;99.90
22813;DHT22;11573;51.334;3.244;2023-02-11T17:39:35;8.30;99.90
22813;DHT22;11573;51.334;3.244;2023-02-11T17:42:03;8.20;99.90
22813;DHT22;11573;51.334;3.244;2023-02-11T17:44:32;8.20;99.90
22813;DHT22;11573;51.334;3.244;2023-02-11T17:46:59;8.20;99.90
22813;DHT22;11573;51.334;3.244;2023-02-11T17:49:26;8.20;99.90
22813;DHT22;11573;51.334;3.244;2023-02-11T17:51:53;8.20;99.90
22813;DHT22;11573;51.334;3.244;2023-02-11T17:54:20;8.20;99.90
22813;DHT22;11573;51.334;3.244;2023-02-11T17:56:48;8.20;99.90
22813;DHT22;11573;51.334;3.244;2023-02-11T17:59:16;8.20;99.90
22813;DHT22;11573;51.334;3.244;2023-02-11T18:01:44;8.20;99.90
22813;DHT22;11573;51.334;3.244;2023-02-11T18:04:13;8.20;99.90
22813;DHT22;11573;51.334;3.244;2023-02-11T18:06:41;8.20;99.90
22813;DHT22;11573;51.334;3.244;2023-02-11T18:09:09;8.10;99.90
22813;DHT22;11573;51.334;3.244;2023-02-11T18:11:37;8.20;99.90
22813;DHT22;11573;51.334;3.244;2023-02-11T18:14:05;8.10;99.90
22813;DHT22;11573;51.334;3.244;2023-02-11T18:16:34;8.20;99.90
22813;DHT22;11573;51.334;3.244;2023-02-11T18:19:05;8.20;99.90
22813;DHT22;11573;51.334;3.244;2023-02-11T18:21:33;8.10;99.90
22813;DHT22;11573;51.334;3.244;2023-02-11T18:24:00;8.10;99.90